Time;durP1;ratioP1;P1;durP2;ratioP2;P2;SDS_P1;SDS_P2;PMS_P1;PMS_P2;Temp;Humidity;BMP_temperature;BMP_pressure;BME280_temperature;BME280_humidity;BME280_pressure;Samples;Min_cycle;Max_cycle;Signal;HPM_P1;HPM_P2
2021/04/21 00:00:14;;;;;;;8.73;0.98;;;18.00;48.60;;;;;;5074404;28;20073;-67
2021/04/21 00:02:44;;;;;;;7.80;1.00;;;18.10;49.30;;;;;;5077026;28;20530;-67
2021/04/21 00:05:13;;;;;;;3.50;0.65;;;18.20;48.10;;;;;;5074817;28;20086;-68
2021/04/21 00:07:41;;;;;;;4.45;1.17;;;18.20;47.90;;;;;;5074192;28;20090;-61
2021/04/21 00:10:11;;;;;;;4.85;0.85;;;18.30;48.20;;;;;;5074087;28;20035;-67
2021/04/21 00:12:39;;;;;;;2.05;0.63;;;18.20;47.50;;;;;;5059238;28;20371;-67
2021/04/21 00:15:12;;;;;;;1.20;0.80;;;18.20;47.30;;;;;;5080072;28;20020;-60
2021/04/21 00:17:43;;;;;;;1.35;0.57;;;18.30;48.30;;;;;;5062230;28;20025;-61
2021/04/21 00:20:13;;;;;;;2.38;0.60;;;18.50;46.70;;;;;;5080512;28;20021;-67
2021/04/21 00:22:42;;;;;;;2.10;0.80;;;18.50;46.80;;;;;;5080004;28;20107;-67
2021/04/21 00:25:13;;;;;;;7.65;1.48;;;18.50;47.60;;;;;;5060157;28;20033;-59
2021/04/21 00:27:42;;;;;;;1.90;0.85;;;18.60;46.70;;;;;;5077508;28;20096;-64
2021/04/21 00:30:13;;;;;;;4.60;0.70;;;18.60;46.70;;;;;;5075965;28;20028;-60
2021/04/21 00:32:46;;;;;;;3.90;0.80;;;18.90;46.30;;;;;;5081168;28;20032;-60
2021/04/21 00:35:19;;;;;;;7.07;0.90;;;19.10;46.30;;;;;;5075811;28;20025;-66
2021/04/21 00:37:48;;;;;;;3.25;0.70;;;19.00;46.30;;;;;;5077081;28;20032;-65
2021/04/21 00:40:20;;;;;;;4.75;1.55;;;19.00;45.20;;;;;;5080305;28;20033;-65
2021/04/21 00:42:53;;;;;;;6.97;0.80;;;19.10;45.90;;;;;;5079618;28;20087;-60
2021/04/21 00:45:22;;;;;;;4.85;1.10;;;19.00;44.90;;;;;;5080689;28;20020;-60
2021/04/21 00:48:17;;;;;;;2.08;0.60;;;19.10;46.50;;;;;;5076219;28;20056;-60
2021/04/21 00:50:48;;;;;;;2.83;0.65;;;19.50;46.10;;;;;;5086141;28;20454;-59
2021/04/21 00:53:42;;;;;;;1.20;0.57;;;19.50;45.00;;;;;;5066073;28;20033;-65
2021/04/21 00:56:39;;;;;;;5.18;0.80;;;19.60;44.70;;;;;;5071344;28;20183;-64
2021/04/21 00:59:20;;;;;;;1.38;0.45;;;19.50;44.80;;;;;;5048015;28;20030;-67
2021/04/21 01:01:48;;;;;;;0.65;0.55;;;19.30;44.40;;;;;;5077298;28;20107;-67
2021/04/21 01:04:16;;;;;;;4.72;0.90;;;19.50;43.70;;;;;;5075342;28;20062;-60
2021/04/21 01:06:46;;;;;;;3.95;2.22;;;19.50;43.70;;;;;;5071972;28;20070;-66
2021/04/21 01:09:17;;;;;;;2.22;0.50;;;19.70;45.30;;;;;;5073977;28;20148;-59
2021/04/21 01:11:51;;;;;;;1.40;0.38;;;19.80;44.30;;;;;;5076525;28;20032;-60
2021/04/21 01:14:30;;;;;;;2.03;0.50;;;19.90;43.40;;;;;;5074421;28;20032;-61
2021/04/21 01:17:08;;;;;;;1.75;0.55;;;19.70;43.40;;;;;;5079554;28;20086;-60
2021/04/21 01:19:59;;;;;;;0.85;0.40;;;19.70;43.00;;;;;;5076914;28;20036;-68
2021/04/21 01:22:29;;;;;;;1.60;0.40;;;19.70;43.00;;;;;;5076709;28;20170;-60
2021/04/21 01:25:28;;;;;;;1.05;0.60;;;19.70;42.30;;;;;;5075278;28;20074;-60
2021/04/21 01:27:59;;;;;;;2.53;0.80;;;20.00;42.10;;;;;;5063325;28;20678;-67
2021/04/21 01:30:30;;;;;;;1.55;0.50;;;20.50;41.90;;;;;;5075946;28;20067;-69
2021/04/21 01:33:12;;;;;;;1.75;0.50;;;20.30;41.10;;;;;;5070336;28;20071;-62
2021/04/21 01:35:44;;;;;;;2.00;0.45;;;20.40;41.50;;;;;;5075654;28;20032;-61
2021/04/21 01:38:14;;;;;;;3.38;0.60;;;20.30;41.50;;;;;;5077650;28;20120;-61
2021/04/21 01:40:44;;;;;;;3.28;0.38;;;20.40;40.40;;;;;;5077577;28;20070;-69
2021/04/21 01:43:19;;;;;;;1.55;0.35;;;20.40;40.10;;;;;;5077870;28;20029;-68
2021/04/21 01:45:48;;;;;;;1.83;0.50;;;20.50;38.80;;;;;;5072762;28;20035;-60
2021/04/21 01:48:21;;;;;;;0.82;0.40;;;20.80;39.70;;;;;;5077745;28;20085;-60
2021/04/21 01:50:49;;;;;;;1.15;0.55;;;21.00;38.40;;;;;;5077800;28;20131;-61
2021/04/21 01:53:32;;;;;;;0.98;0.30;;;20.80;38.50;;;;;;5077554;28;20033;-68
2021/04/21 01:56:42;;;;;;;1.25;0.47;;;20.70;40.10;;;;;;5072544;28;20425;-61
2021/04/21 01:59:49;;;;;;;0.47;0.32;;;21.00;39.70;;;;;;5055474;28;20059;-60
2021/04/21 02:02:39;;;;;;;2.22;0.50;;;21.30;39.70;;;;;;5076981;28;20028;-60
2021/04/21 02:05:29;;;;;;;1.40;0.40;;;21.40;38.50;;;;;;5057308;28;20040;-60
2021/04/21 02:08:48;;;;;;;1.75;0.40;;;21.20;37.30;;;;;;5076497;28;20032;-68
2021/04/21 02:11:20;;;;;;;1.33;0.57;;;21.10;37.80;;;;;;5039546;28;20036;-68
2021/04/21 02:14:17;;;;;;;2.25;0.60;;;21.10;37.90;;;;;;5074353;28;20031;-60
2021/04/21 02:16:53;;;;;;;2.33;0.57;;;21.30;39.10;;;;;;5071982;28;20103;-65
2021/04/21 02:19:52;;;;;;;1.35;0.40;;;21.60;37.50;;;;;;5075641;28;20458;-60
2021/04/21 02:22:25;;;;;;;0.55;0.40;;;21.70;36.80;;;;;;5073400;28;20050;-67
2021/04/21 02:25:18;;;;;;;2.17;0.60;;;21.70;36.60;;;;;;5074202;28;20043;-71
2021/04/21 02:28:10;;;;;;;1.13;0.30;;;21.40;37.40;;;;;;5051579;28;20770;-71
2021/04/21 02:30:49;;;;;;;2.20;0.47;;;21.20;37.20;;;;;;5071439;28;20028;-73
2021/04/21 02:33:24;;;;;;;1.38;0.32;;;21.30;37.10;;;;;;5068581;28;20064;-62
2021/04/21 02:35:56;;;;;;;0.88;0.50;;;21.20;37.30;;;;;;5066123;28;20032;-61
2021/04/21 02:38:29;;;;;;;1.50;0.53;;;21.30;37.50;;;;;;5065354;28;20824;-62
2021/04/21 02:41:07;;;;;;;0.45;0.40;;;21.50;38.70;;;;;;5065549;28;20032;-62
2021/04/21 02:43:58;;;;;;;0.55;0.47;;;22.00;37.20;;;;;;5065805;28;20028;-71
2021/04/21 02:46:47;;;;;;;4.13;0.80;;;21.90;37.80;;;;;;5097176;22;20518;-70
2021/04/21 02:49:35;;;;;;;3.75;0.35;;;21.70;36.90;;;;;;5062715;28;20047;-62
2021/04/21 02:52:06;;;;;;;4.70;0.47;;;21.50;37.70;;;;;;5060514;28;20404;-71
2021/04/21 02:54:51;;;;;;;1.38;0.40;;;21.40;37.60;;;;;;5061984;28;20016;-61
2021/04/21 02:57:33;;;;;;;0.55;0.30;;;21.40;37.30;;;;;;5058511;28;20110;-61
2021/04/21 03:00:13;;;;;;;3.17;0.45;;;21.30;38.70;;;;;;5058431;28;20380;-60
2021/04/21 03:02:53;;;;;;;1.88;0.40;;;21.60;37.40;;;;;;5058208;28;20029;-70
2021/04/21 03:05:26;;;;;;;1.58;0.60;;;21.80;36.20;;;;;;5058054;28;20020;-60
2021/04/21 03:08:06;;;;;;;1.65;0.55;;;21.80;35.80;;;;;;5045134;28;20024;-60
2021/04/21 03:11:07;;;;;;;1.65;0.30;;;22.00;35.50;;;;;;5062833;28;20047;-69
2021/04/21 03:13:57;;;;;;;1.52;0.60;;;21.80;36.10;;;;;;5057351;28;20029;-71
2021/04/21 03:16:26;;;;;;;0.75;0.28;;;22.10;37.10;;;;;;5057532;28;20356;-72
2021/04/21 03:18:57;;;;;;;1.38;0.38;;;22.30;36.30;;;;;;5058072;28;20032;-62
2021/04/21 03:21:29;;;;;;;1.25;0.32;;;22.50;35.20;;;;;;5063177;28;20026;-62
2021/04/21 03:24:08;;;;;;;2.90;0.40;;;22.50;34.50;;;;;;5062898;28;20653;-61
2021/04/21 03:26:38;;;;;;;1.25;0.68;;;22.50;35.10;;;;;;5063430;28;20340;-64
2021/04/21 03:29:07;;;;;;;2.08;0.40;;;22.50;35.40;;;;;;5062097;28;20125;-62
2021/04/21 03:31:37;;;;;;;2.65;0.25;;;22.60;33.70;;;;;;5055985;28;20078;-72
2021/04/21 03:34:08;;;;;;;2.95;0.40;;;22.30;33.50;;;;;;5062907;28;20803;-70
2021/04/21 03:36:38;;;;;;;0.52;0.38;;;22.40;34.80;;;;;;5061426;28;20028;-70
2021/04/21 03:39:06;;;;;;;0.57;0.30;;;22.70;34.60;;;;;;5059165;28;20075;-62
2021/04/21 03:41:34;;;;;;;0.88;0.30;;;22.80;35.00;;;;;;5055104;28;20071;-61
2021/04/21 03:44:02;;;;;;;2.63;0.40;;;22.80;33.50;;;;;;5061580;28;20085;-69
2021/04/21 03:46:30;;;;;;;1.17;0.45;;;22.70;34.80;;;;;;5062396;28;20060;-70
2021/04/21 03:48:59;;;;;;;1.65;0.30;;;22.60;34.10;;;;;;5061974;28;20526;-70
2021/04/21 03:51:28;;;;;;;0.43;0.28;;;22.60;34.70;;;;;;5061210;28;20367;-71
2021/04/21 03:53:56;;;;;;;1.33;0.50;;;22.70;34.20;;;;;;5065559;28;20123;-60
2021/04/21 03:56:27;;;;;;;0.57;0.40;;;22.90;34.10;;;;;;5061225;28;20028;-71
2021/04/21 03:58:55;;;;;;;1.38;0.82;;;22.70;33.00;;;;;;5067803;28;20103;-61
2021/04/21 04:01:24;;;;;;;1.35;0.50;;;22.70;33.80;;;;;;5068208;28;20016;-61
2021/04/21 04:03:58;;;;;;;0.40;0.30;;;22.90;33.80;;;;;;5068304;28;20063;-71
2021/04/21 04:06:53;;;;;;;6.95;0.50;;;22.80;33.50;;;;;;5073933;28;20024;-60
2021/04/21 04:09:23;;;;;;;2.75;0.75;;;22.40;34.20;;;;;;5073132;28;20487;-71
2021/04/21 04:11:58;;;;;;;1.60;0.35;;;22.20;34.60;;;;;;5073348;28;20020;-60
2021/04/21 04:14:31;;;;;;;1.58;0.38;;;22.00;34.30;;;;;;5074616;28;20021;-70
2021/04/21 04:17:03;;;;;;;1.05;0.43;;;22.00;35.50;;;;;;5071524;28;20028;-70
2021/04/21 04:19:34;;;;;;;;;;;22.20;34.20;;;;;;5070728;28;20021;-61
2021/04/21 04:22:01;;;;;;;2.42;0.43;;;22.20;35.80;;;;;;5074271;28;19912;-62
2021/04/21 04:24:35;;;;;;;1.98;0.40;;;22.20;35.10;;;;;;5073049;28;20127;-62
2021/04/21 04:27:06;;;;;;;1.73;0.60;;;22.50;34.30;;;;;;5073384;28;20035;-69
2021/04/21 04:29:34;;;;;;;0.98;0.30;;;22.60;34.10;;;;;;5071390;28;20155;-69
2021/04/21 04:32:03;;;;;;;0.40;0.40;;;22.60;34.60;;;;;;5074836;28;20504;-69
2021/04/21 04:34:32;;;;;;;2.58;1.05;;;22.60;34.00;;;;;;5073416;28;20059;-70
2021/04/21 04:36:59;;;;;;;1.83;0.52;;;22.60;34.60;;;;;;5071674;28;20093;-71
2021/04/21 04:39:28;;;;;;;0.85;0.30;;;22.40;34.70;;;;;;5070383;28;20017;-71
2021/04/21 04:41:57;;;;;;;1.67;0.40;;;22.40;35.30;;;;;;5073720;28;20028;-61
2021/04/21 04:44:25;;;;;;;3.15;0.40;;;22.40;35.00;;;;;;5076536;28;20017;-61
2021/04/21 04:46:55;;;;;;;0.52;0.30;;;22.40;35.00;;;;;;5072074;28;20050;-69
2021/04/21 04:49:24;;;;;;;0.38;0.30;;;22.50;34.20;;;;;;5072872;28;20824;-71
2021/04/21 04:51:53;;;;;;;1.55;0.43;;;22.60;33.90;;;;;;5071578;28;20024;-69
2021/04/21 04:54:21;;;;;;;2.85;0.75;;;22.70;33.20;;;;;;5075384;28;20051;-62
2021/04/21 04:56:49;;;;;;;5.85;0.95;;;22.80;33.80;;;;;;5068900;28;20025;-60
2021/04/21 04:59:24;;;;;;;3.35;0.75;;;22.60;34.20;;;;;;5073725;28;20017;-71
2021/04/21 05:02:00;;;;;;;5.90;0.90;;;22.60;34.80;;;;;;5071082;28;20024;-62
2021/04/21 05:04:40;;;;;;;2.47;0.60;;;22.70;34.30;;;;;;5075448;28;20536;-62
2021/04/21 05:07:12;;;;;;;2.33;0.57;;;22.60;34.20;;;;;;5072573;28;20099;-68
2021/04/21 05:09:42;;;;;;;1.33;0.35;;;22.60;33.90;;;;;;5073818;28;20027;-60
2021/04/21 05:12:12;;;;;;;1.85;0.50;;;22.50;34.00;;;;;;5070786;28;20024;-62
2021/04/21 05:14:42;;;;;;;0.63;0.20;;;22.70;34.10;;;;;;5074475;28;20048;-60
2021/04/21 05:18:02;;;;;;;0.90;0.32;;;22.60;33.80;;;;;;5066070;28;20469;-69
2021/04/21 05:21:03;;;;;;;0.65;0.40;;;22.60;33.90;;;;;;5074042;28;20571;-71
2021/04/21 05:24:07;;;;;;;0.20;0.20;;;22.40;34.00;;;;;;5072938;28;20017;-61
2021/04/21 05:27:09;;;;;;;0.40;0.20;;;22.40;34.00;;;;;;5065441;28;20473;-73
2021/04/21 05:30:18;;;;;;;0.22;0.20;;;22.40;33.70;;;;;;5073137;28;20157;-69
2021/04/21 05:33:26;;;;;;;0.63;0.30;;;22.40;34.60;;;;;;5069426;28;20028;-69
2021/04/21 05:36:20;;;;;;;1.45;0.52;;;22.30;33.70;;;;;;5071355;28;20063;-71
2021/04/21 05:39:10;;;;;;;2.58;0.85;;;22.40;34.80;;;;;;5071817;28;20024;-61
2021/04/21 05:41:37;;;;;;;0.68;0.60;;;22.40;34.40;;;;;;5066735;28;20035;-68
2021/04/21 05:44:55;;;;;;;3.53;0.50;;;22.30;34.10;;;;;;5077109;28;20025;-74
2021/04/21 05:47:46;;;;;;;2.33;0.55;;;22.30;34.00;;;;;;5071411;28;20103;-71
2021/04/21 05:50:52;;;;;;;0.80;0.40;;;22.80;33.50;;;;;;5073043;28;20031;-63
2021/04/21 05:53:40;;;;;;;0.63;0.43;;;23.10;32.70;;;;;;5073017;28;20012;-63
2021/04/21 05:56:54;;;;;;;2.10;1.10;;;23.30;32.90;;;;;;5057632;28;20028;-71
2021/04/21 05:59:45;;;;;;;1.35;0.57;;;23.20;31.90;;;;;;5069240;28;20035;-68
2021/04/21 06:02:14;;;;;;;1.10;0.43;;;23.50;31.60;;;;;;5073871;28;20115;-69
2021/04/21 06:04:41;;;;;;;2.60;0.40;;;23.70;31.50;;;;;;5077528;28;20024;-62
2021/04/21 06:07:12;;;;;;;0.85;0.40;;;23.80;31.40;;;;;;5069397;28;20032;-70
2021/04/21 06:09:40;;;;;;;0.60;0.50;;;24.00;31.20;;;;;;5059419;28;20028;-71
2021/04/21 06:12:15;;;;;;;0.88;0.60;;;24.30;30.90;;;;;;5072216;28;20194;-71
2021/04/21 06:14:44;;;;;;;1.00;0.50;;;24.40;30.90;;;;;;5069970;28;20041;-61
2021/04/21 06:17:12;;;;;;;1.08;0.32;;;24.30;30.70;;;;;;5062787;28;20058;-69
2021/04/21 06:19:44;;;;;;;4.60;0.60;;;24.40;30.80;;;;;;5064499;28;20478;-63
2021/04/21 06:22:11;;;;;;;2.27;1.03;;;24.50;30.90;;;;;;5074952;28;20600;-61
2021/04/21 06:24:39;;;;;;;2.10;1.05;;;24.50;30.40;;;;;;5074149;28;20112;-70
2021/04/21 06:27:10;;;;;;;5.50;0.80;;;24.10;30.40;;;;;;5070789;28;20450;-67
2021/04/21 06:29:39;;;;;;;2.30;1.20;;;23.80;31.40;;;;;;5073390;28;20113;-65
2021/04/21 06:32:13;;;;;;;3.90;0.60;;;23.40;32.20;;;;;;5072882;28;20292;-62
2021/04/21 06:34:40;;;;;;;3.92;0.50;;;23.00;32.70;;;;;;5073982;28;20051;-72
2021/04/21 06:37:09;;;;;;;3.95;1.48;;;22.70;33.70;;;;;;5074969;28;20430;-68
2021/04/21 06:39:36;;;;;;;6.50;4.35;;;22.10;34.90;;;;;;5068587;28;20111;-65
2021/04/21 06:42:04;;;;;;;1.75;0.60;;;21.80;35.60;;;;;;5075321;28;20039;-68
2021/04/21 06:44:45;;;;;;;1.45;1.25;;;21.50;34.10;;;;;;5068822;28;20448;-70
2021/04/21 06:47:26;;;;;;;2.38;1.10;;;21.10;36.20;;;;;;5070067;28;20131;-63
2021/04/21 06:50:12;;;;;;;2.95;0.52;;;20.70;36.40;;;;;;5070192;28;20063;-61
2021/04/21 06:52:43;;;;;;;3.80;0.70;;;20.30;37.00;;;;;;5049638;28;20028;-72
2021/04/21 06:55:16;;;;;;;2.42;0.88;;;20.10;37.80;;;;;;5072017;28;20433;-63
2021/04/21 06:57:44;;;;;;;1.85;1.00;;;20.00;38.60;;;;;;5071037;28;20204;-70
2021/04/21 07:00:16;;;;;;;2.30;1.05;;;19.90;39.80;;;;;;5072950;28;20297;-62
2021/04/21 07:02:55;;;;;;;3.75;0.90;;;19.80;40.60;;;;;;5069997;28;20016;-69
2021/04/21 07:05:42;;;;;;;2.50;1.20;;;19.70;40.50;;;;;;5072656;28;20028;-62
2021/04/21 07:08:11;;;;;;;2.08;1.00;;;19.70;41.00;;;;;;5074124;28;20030;-61
2021/04/21 07:10:47;;;;;;;5.75;1.13;;;19.60;41.40;;;;;;5073128;28;20040;-70
2021/04/21 07:13:37;;;;;;;3.70;1.05;;;19.60;41.60;;;;;;5072757;28;20023;-61
2021/04/21 07:16:11;;;;;;;3.17;0.90;;;19.40;41.50;;;;;;5069787;28;20028;-64
2021/04/21 07:18:40;;;;;;;2.47;0.88;;;19.30;41.90;;;;;;5071404;28;20542;-63
2021/04/21 07:21:09;;;;;;;2.30;1.08;;;19.20;42.00;;;;;;5068149;28;20032;-64
2021/04/21 07:23:40;;;;;;;6.63;1.50;;;18.90;42.00;;;;;;5072454;28;20086;-63
2021/04/21 07:26:07;;;;;;;4.75;1.10;;;18.60;43.90;;;;;;5070413;28;20055;-64
2021/04/21 07:28:38;;;;;;;2.08;0.80;;;18.20;44.60;;;;;;5070623;28;20024;-62
2021/04/21 07:31:35;;;;;;;3.42;1.23;;;17.80;45.10;;;;;;5070191;28;20118;-62
2021/04/21 07:34:03;;;;;;;2.72;1.15;;;17.40;47.00;;;;;;5072455;28;20118;-71
2021/04/21 07:36:43;;;;;;;2.28;1.27;;;17.10;47.60;;;;;;5069259;28;20112;-71
2021/04/21 07:39:11;;;;;;;1.52;0.82;;;16.90;48.10;;;;;;5071584;28;20062;-69
2021/04/21 07:41:39;;;;;;;5.22;1.38;;;16.80;45.70;;;;;;5073938;28;20024;-72
2021/04/21 07:44:26;;;;;;;5.35;1.50;;;16.80;46.60;;;;;;5074479;28;20025;-74
2021/04/21 07:47:08;;;;;;;4.32;1.40;;;16.80;47.60;;;;;;5069632;28;20044;-70
2021/04/21 07:49:41;;;;;;;3.30;1.25;;;16.70;51.30;;;;;;5069957;28;20067;-64
2021/04/21 07:52:07;;;;;;;;;;;16.60;54.10;;;;;;5069164;28;20028;-71
2021/04/21 07:54:36;;;;;;;8.70;6.78;;;16.50;56.80;;;;;;5071098;28;20370;-75
2021/04/21 07:57:11;;;;;;;1.83;1.10;;;16.40;57.90;;;;;;5072302;28;20074;-74
2021/04/21 07:59:43;;;;;;;2.97;1.38;;;16.30;59.90;;;;;;5070759;28;20020;-64
2021/04/21 08:02:12;;;;;;;;;;;16.20;60.30;;;;;;5071777;28;20449;-70
2021/04/21 08:04:51;;;;;;;5.10;1.30;;;16.10;61.20;;;;;;5051345;28;19916;-69
2021/04/21 08:07:42;;;;;;;6.95;1.38;;;16.10;61.60;;;;;;5055200;28;20028;-64
2021/04/21 08:10:24;;;;;;;6.32;2.05;;;16.00;62.30;;;;;;5068919;28;20077;-63
2021/04/21 08:12:57;;;;;;;6.22;2.17;;;16.00;62.90;;;;;;5072449;28;20024;-69
2021/04/21 08:15:43;;;;;;;4.25;1.45;;;15.90;63.20;;;;;;5074300;28;20024;-64
2021/04/21 08:18:12;;;;;;;3.67;1.42;;;15.90;63.50;;;;;;5069030;28;20374;-71
2021/04/21 08:20:51;;;;;;;5.63;1.90;;;15.80;63.90;;;;;;5072635;28;20047;-70
2021/04/21 08:23:20;;;;;;;3.13;1.52;;;15.70;64.00;;;;;;5073451;28;20104;-67
2021/04/21 08:25:48;;;;;;;2.95;1.42;;;15.60;64.90;;;;;;5070172;28;20136;-72
2021/04/21 08:28:16;;;;;;;4.45;1.55;;;15.50;65.70;;;;;;5070810;28;20028;-69
2021/04/21 08:31:02;;;;;;;9.68;1.67;;;15.30;66.10;;;;;;5074286;28;20030;-67
2021/04/21 08:33:33;;;;;;;5.03;1.95;;;15.20;66.50;;;;;;5069180;28;20016;-71
2021/04/21 08:36:00;;;;;;;7.95;1.75;;;15.20;66.80;;;;;;5069859;28;20315;-65
2021/04/21 08:38:28;;;;;;;4.00;1.95;;;15.20;67.30;;;;;;5070027;28;20536;-65
2021/04/21 08:40:55;;;;;;;6.88;4.00;;;15.00;67.70;;;;;;5072403;28;20024;-68
2021/04/21 08:43:23;;;;;;;11.85;8.93;;;15.00;68.00;;;;;;5069224;28;20174;-61
2021/04/21 08:45:53;;;;;;;9.88;3.30;;;14.80;68.30;;;;;;4709132;28;9999628;-63
2021/04/21 08:48:23;;;;;;;5.20;1.65;;;14.60;69.10;;;;;;5063938;28;20056;-70
2021/04/21 08:50:50;;;;;;;5.30;2.13;;;14.60;69.70;;;;;;5066812;28;20021;-63
2021/04/21 08:53:21;;;;;;;3.05;1.73;;;14.50;70.10;;;;;;5066039;28;20143;-61
2021/04/21 08:55:49;;;;;;;3.15;1.58;;;14.40;70.40;;;;;;5067623;28;20494;-62
2021/04/21 08:58:20;;;;;;;3.50;1.80;;;14.20;71.00;;;;;;5071929;28;20127;-61
2021/04/21 09:00:47;;;;;;;5.60;1.50;;;14.20;71.40;;;;;;5067607;28;20066;-71
2021/04/21 09:03:16;;;;;;;5.40;1.73;;;14.10;71.60;;;;;;5069210;28;20031;-63
2021/04/21 09:05:43;;;;;;;3.90;1.52;;;14.00;71.90;;;;;;5067288;28;20024;-72
2021/04/21 09:08:11;;;;;;;4.32;1.60;;;13.90;72.90;;;;;;5067525;28;20035;-70
2021/04/21 09:10:39;;;;;;;3.80;1.40;;;13.90;72.30;;;;;;5044637;28;20067;-63
2021/04/21 09:13:08;;;;;;;3.90;1.50;;;13.90;72.20;;;;;;5050622;28;20033;-71
2021/04/21 09:15:35;;;;;;;3.15;1.67;;;13.90;72.20;;;;;;5048285;28;20028;-68
2021/04/21 09:18:03;;;;;;;3.38;1.85;;;13.80;72.40;;;;;;5049767;28;20465;-63
2021/04/21 09:20:30;;;;;;;5.57;2.35;;;13.70;72.80;;;;;;5048164;28;20655;-64
2021/04/21 09:23:14;;;;;;;5.47;1.65;;;13.70;72.90;;;;;;5048778;28;20092;-63
2021/04/21 09:25:43;;;;;;;4.75;2.15;;;13.70;73.00;;;;;;5047498;28;20035;-65
2021/04/21 09:28:11;;;;;;;6.10;2.30;;;13.70;72.70;;;;;;5048044;28;20052;-71
2021/04/21 09:30:41;;;;;;;3.22;2.05;;;13.70;73.20;;;;;;5045068;28;20051;-70
2021/04/21 09:33:09;;;;;;;5.00;2.35;;;13.70;72.90;;;;;;5045657;28;20028;-73
2021/04/21 09:35:47;;;;;;;5.43;1.95;;;13.70;73.40;;;;;;5046299;28;20028;-72
2021/04/21 09:38:22;;;;;;;5.97;2.38;;;13.50;74.00;;;;;;5043227;28;20017;-71
2021/04/21 09:40:55;;;;;;;4.88;2.13;;;13.40;74.60;;;;;;5047501;28;20032;-72
2021/04/21 09:43:24;;;;;;;6.20;2.13;;;13.40;74.70;;;;;;5044675;28;20408;-63
2021/04/21 09:45:57;;;;;;;2.88;1.98;;;13.30;74.90;;;;;;5042237;28;20053;-63
2021/04/21 09:48:31;;;;;;;6.53;1.83;;;13.20;75.40;;;;;;5049656;28;20024;-62
2021/04/21 09:51:04;;;;;;;4.80;2.63;;;13.10;75.30;;;;;;5044785;28;20720;-70
2021/04/21 09:53:39;;;;;;;2.67;2.08;;;13.00;76.00;;;;;;5046595;28;20028;-62
2021/04/21 09:56:12;;;;;;;4.88;1.92;;;13.00;76.00;;;;;;5047711;28;20163;-62
2021/04/21 09:58:42;;;;;;;;;;;13.00;76.40;;;;;;5044726;28;20029;-70
2021/04/21 10:01:33;;;;;;;6.38;2.05;;;13.00;76.10;;;;;;5047050;28;19913;-64
2021/04/21 10:04:14;;;;;;;5.05;1.95;;;12.90;76.70;;;;;;5049648;28;20025;-64
2021/04/21 10:07:07;;;;;;;9.02;2.72;;;12.90;76.10;;;;;;5047451;28;20071;-61
2021/04/21 10:09:37;;;;;;;6.82;2.20;;;12.80;76.40;;;;;;5035006;28;20094;-63
2021/04/21 10:12:22;;;;;;;4.75;1.90;;;12.80;76.60;;;;;;5050068;28;20363;-70
2021/04/21 10:15:02;;;;;;;7.18;2.17;;;12.80;76.40;;;;;;5043693;28;20124;-70
2021/04/21 10:17:31;;;;;;;5.35;2.03;;;12.80;76.60;;;;;;5028869;28;20510;-72
2021/04/21 10:19:59;;;;;;;5.47;2.42;;;12.80;76.90;;;;;;5040933;28;20024;-71
2021/04/21 10:22:27;;;;;;;4.32;1.92;;;12.80;77.40;;;;;;5048219;28;20117;-70
2021/04/21 10:24:55;;;;;;;8.05;2.00;;;12.70;76.90;;;;;;5047976;28;20117;-71
2021/04/21 10:27:22;;;;;;;6.03;2.33;;;12.70;76.60;;;;;;5048865;28;20024;-63
2021/04/21 10:29:50;;;;;;;6.90;2.03;;;12.70;76.70;;;;;;5048672;28;20045;-62
2021/04/21 10:32:18;;;;;;;8.05;2.58;;;12.60;77.00;;;;;;5046027;28;20087;-61
2021/04/21 10:34:47;;;;;;;9.45;2.83;;;12.60;76.80;;;;;;5051762;28;20040;-74
2021/04/21 10:37:17;;;;;;;16.17;2.80;;;12.50;77.70;;;;;;5030063;28;20454;-69
2021/04/21 10:39:46;;;;;;;15.63;2.80;;;12.50;77.50;;;;;;5048697;28;20044;-72
2021/04/21 10:42:18;;;;;;;15.38;3.35;;;12.50;78.20;;;;;;5048842;28;20036;-62
2021/04/21 10:44:47;;;;;;;18.55;3.17;;;12.40;78.50;;;;;;5048783;28;20025;-69
2021/04/21 10:47:25;;;;;;;19.00;3.13;;;12.30;79.00;;;;;;5038713;28;20048;-61
2021/04/21 10:50:01;;;;;;;18.30;3.47;;;12.30;79.20;;;;;;5040213;28;20496;-69
2021/04/21 10:52:28;;;;;;;17.50;3.22;;;12.40;78.50;;;;;;5037318;28;20053;-70
2021/04/21 10:55:10;;;;;;;19.27;3.35;;;12.40;78.50;;;;;;5032567;28;20028;-69
2021/04/21 10:57:42;;;;;;;13.05;3.78;;;12.30;78.70;;;;;;5036139;28;20073;-69
2021/04/21 11:00:25;;;;;;;19.45;7.93;;;12.40;78.50;;;;;;5036869;28;20021;-72
2021/04/21 11:03:02;;;;;;;14.52;5.32;;;12.30;78.70;;;;;;5036425;28;20041;-71
2021/04/21 11:05:51;;;;;;;8.50;3.47;;;12.20;79.40;;;;;;4688701;28;10000274;-62
2021/04/21 11:08:22;;;;;;;11.32;3.17;;;12.20;78.90;;;;;;5017439;28;20029;-66
2021/04/21 11:10:58;;;;;;;9.68;2.72;;;12.20;78.20;;;;;;5036381;28;20029;-62
2021/04/21 11:13:39;;;;;;;10.57;2.60;;;12.20;78.90;;;;;;5037248;28;20035;-73
2021/04/21 11:16:12;;;;;;;11.90;2.15;;;12.10;79.40;;;;;;5037762;28;20459;-62
2021/04/21 11:18:43;;;;;;;10.48;2.30;;;12.10;80.00;;;;;;5035710;28;20028;-61
2021/04/21 11:21:12;;;;;;;17.00;2.90;;;12.10;79.60;;;;;;5040912;28;20021;-73
2021/04/21 11:24:10;;;;;;;11.45;2.97;;;12.10;80.20;;;;;;5045297;28;20426;-62
2021/04/21 11:26:46;;;;;;;21.40;2.80;;;12.00;79.70;;;;;;5031891;28;20080;-70
2021/04/21 11:29:25;;;;;;;13.45;2.53;;;12.00;79.80;;;;;;5047065;28;20448;-74
2021/04/21 11:31:52;;;;;;;19.45;2.92;;;11.90;80.50;;;;;;5040722;28;20021;-62
2021/04/21 11:34:30;;;;;;;20.00;3.03;;;12.00;79.60;;;;;;5042052;28;20021;-70
2021/04/21 11:37:08;;;;;;;13.95;3.17;;;11.90;80.10;;;;;;5039706;28;20032;-62
2021/04/21 11:39:55;;;;;;;15.23;2.97;;;11.80;80.70;;;;;;5040718;28;20048;-62
2021/04/21 11:42:28;;;;;;;9.57;2.90;;;11.80;80.20;;;;;;5033682;28;20021;-70
2021/04/21 11:45:23;;;;;;;15.00;3.47;;;11.80;80.50;;;;;;5033119;28;20029;-70
2021/04/21 11:48:07;;;;;;;19.42;2.45;;;11.80;80.40;;;;;;5036249;28;20048;-63
2021/04/21 11:50:37;;;;;;;16.00;3.10;;;11.80;80.60;;;;;;5037755;28;20032;-62
2021/04/21 11:53:12;;;;;;;14.35;2.85;;;11.80;80.40;;;;;;5036971;28;20036;-71
2021/04/21 11:56:02;;;;;;;17.73;3.22;;;11.70;80.60;;;;;;5031152;28;20782;-71
2021/04/21 11:58:32;;;;;;;14.35;3.30;;;11.70;81.10;;;;;;5030367;28;20024;-70
2021/04/21 12:01:01;;;;;;;9.60;2.78;;;11.60;81.40;;;;;;5035695;28;20558;-62
2021/04/21 12:03:38;;;;;;;17.92;2.45;;;11.60;81.40;;;;;;5034032;28;20742;-71
2021/04/21 12:06:07;;;;;;;13.63;2.58;;;11.60;81.70;;;;;;5030290;28;20127;-63
2021/04/21 12:08:45;;;;;;;9.80;2.00;;;11.50;81.20;;;;;;5039738;28;20060;-63
2021/04/21 12:11:12;;;;;;;18.60;2.95;;;11.50;81.70;;;;;;5036171;28;20100;-70
2021/04/21 12:13:44;;;;;;;10.75;2.53;;;11.40;81.70;;;;;;5039059;28;20033;-63
2021/04/21 12:16:14;;;;;;;9.63;2.47;;;11.40;82.10;;;;;;5041144;28;20438;-63
2021/04/21 12:18:48;;;;;;;10.38;2.25;;;11.50;81.30;;;;;;5040376;28;20505;-71
2021/04/21 12:21:18;;;;;;;6.82;2.30;;;11.50;81.20;;;;;;5040632;28;20375;-63
2021/04/21 12:24:04;;;;;;;7.03;1.80;;;11.70;79.90;;;;;;5037579;28;20029;-70
2021/04/21 12:26:36;;;;;;;10.90;1.95;;;11.70;79.10;;;;;;5035968;28;20038;-70
2021/04/21 12:29:09;;;;;;;9.93;1.98;;;11.70;79.60;;;;;;5035797;28;20025;-63
2021/04/21 12:31:37;;;;;;;5.38;1.50;;;11.60;79.80;;;;;;5037220;28;20033;-62
2021/04/21 12:34:06;;;;;;;4.25;2.15;;;11.60;79.50;;;;;;5036763;28;20028;-63
2021/04/21 12:36:38;;;;;;;7.55;2.00;;;11.60;79.70;;;;;;5036641;28;20500;-69
2021/04/21 12:39:22;;;;;;;7.47;2.10;;;11.60;79.50;;;;;;5039086;28;20029;-71
2021/04/21 12:41:57;;;;;;;8.48;1.85;;;11.50;79.90;;;;;;5033746;28;20032;-62
2021/04/21 12:44:29;;;;;;;9.23;2.80;;;11.50;79.10;;;;;;5034127;28;20452;-62
2021/04/21 12:47:04;;;;;;;11.32;3.35;;;11.70;78.00;;;;;;5035078;28;20135;-64
2021/04/21 12:49:40;;;;;;;15.43;3.53;;;11.70;78.50;;;;;;5035522;28;21356;-71
2021/04/21 12:52:12;;;;;;;5.43;2.30;;;11.50;78.70;;;;;;5034438;28;20032;-70
2021/04/21 12:54:43;;;;;;;4.47;1.77;;;11.40;79.50;;;;;;5034686;28;20052;-62
2021/04/21 12:57:16;;;;;;;8.90;2.15;;;11.30;79.80;;;;;;5039203;28;20123;-70
2021/04/21 12:59:44;;;;;;;;;;;11.30;79.90;;;;;;5039824;28;20060;-62
2021/04/21 13:02:15;;;;;;;11.15;1.70;;;11.20;80.50;;;;;;5033796;28;20337;-62
2021/04/21 13:04:47;;;;;;;5.05;1.50;;;11.20;80.20;;;;;;5033797;28;20022;-70
2021/04/21 13:07:23;;;;;;;6.63;1.85;;;11.10;81.00;;;;;;5035606;28;20060;-63
2021/04/21 13:09:50;;;;;;;5.80;2.13;;;11.10;81.40;;;;;;5035985;28;20032;-62
2021/04/21 13:12:24;;;;;;;5.85;1.50;;;11.00;81.20;;;;;;5035050;28;20634;-62
2021/04/21 13:14:51;;;;;;;5.22;1.55;;;11.00;81.50;;;;;;5038090;28;20136;-73
2021/04/21 13:17:21;;;;;;;3.85;1.35;;;11.00;82.00;;;;;;5033604;28;20026;-64
2021/04/21 13:19:57;;;;;;;5.32;1.70;;;11.00;81.60;;;;;;5034838;28;20021;-73
2021/04/21 13:22:28;;;;;;;7.03;1.55;;;11.00;81.20;;;;;;5034772;28;20028;-64
2021/04/21 13:24:57;;;;;;;6.60;1.98;;;11.00;81.10;;;;;;5032790;28;20028;-63
2021/04/21 13:27:34;;;;;;;12.68;2.60;;;11.00;81.20;;;;;;5035649;28;20060;-63